sensor_id;sensor_type;location;lat;lon;timestamp;pressure;altitude;pressure_sealevel;temperature;humidity
35331;BME280;21441;52.190;20.910;2023-04-09T00:02:03;100854.72;;;9.37;100.00
35331;BME280;21441;52.190;20.910;2023-04-09T00:04:32;100855.34;;;9.31;100.00
35331;BME280;21441;52.190;20.910;2023-04-09T00:07:01;100846.94;;;9.26;100.00
35331;BME280;21441;52.190;20.910;2023-04-09T00:09:28;100854.66;;;9.29;100.00
35331;BME280;21441;52.190;20.910;2023-04-09T00:11:55;100852.31;;;9.44;100.00
35331;BME280;21441;52.190;20.910;2023-04-09T00:14:22;100857.88;;;9.50;100.00
35331;BME280;21441;52.190;20.910;2023-04-09T00:16:50;100858.97;;;9.58;100.00
35331;BME280;21441;52.190;20.910;2023-04-09T00:19:17;100852.56;;;9.50;100.00
35331;BME280;21441;52.190;20.910;2023-04-09T00:21:44;100864.16;;;9.32;100.00
35331;BME280;21441;52.190;20.910;2023-04-09T00:24:12;100859.97;;;9.29;100.00
35331;BME280;21441;52.190;20.910;2023-04-09T00:26:40;100859.47;;;9.16;100.00
35331;BME280;21441;52.190;20.910;2023-04-09T00:29:07;100857.53;;;9.08;100.00
35331;BME280;21441;52.190;20.910;2023-04-09T00:31:34;100845.81;;;8.91;100.00
35331;BME280;21441;52.190;20.910;2023-04-09T00:34:01;100846.53;;;8.93;100.00
35331;BME280;21441;52.190;20.910;2023-04-09T00:36:28;100849.16;;;9.03;100.00
35331;BME280;21441;52.190;20.910;2023-04-09T00:38:55;100851.38;;;8.70;100.00
35331;BME280;21441;52.190;20.910;2023-04-09T00:41:25;100845.09;;;8.61;100.00
35331;BME280;21441;52.190;20.910;2023-04-09T00:43:54;100844.34;;;8.69;100.00
35331;BME280;21441;52.190;20.910;2023-04-09T00:46:22;100836.09;;;8.72;100.00
35331;BME280;21441;52.190;20.910;2023-04-09T00:48:49;100836.63;;;8.85;100.00
35331;BME280;21441;52.190;20.910;2023-04-09T00:51:16;100833.22;;;8.93;100.00
35331;BME280;21441;52.190;20.910;2023-04-09T00:53:43;100834.34;;;8.91;100.00
35331;BME280;21441;52.190;20.910;2023-04-09T00:56:11;100839.41;;;8.94;100.00
35331;BME280;21441;52.190;20.910;2023-04-09T00:58:40;100825.78;;;8.97;100.00
35331;BME280;21441;52.190;20.910;2023-04-09T01:01:07;100836.00;;;9.01;100.00
35331;BME280;21441;52.190;20.910;2023-04-09T01:03:34;100836.81;;;9.12;100.00
35331;BME280;21441;52.190;20.910;2023-04-09T01:06:06;100833.13;;;9.13;100.00
35331;BME280;21441;52.190;20.910;2023-04-09T01:08:42;100828.97;;;9.10;100.00
35331;BME280;21441;52.190;20.910;2023-04-09T01:11:19;100833.88;;;9.05;100.00
35331;BME280;21441;52.190;20.910;2023-04-09T01:13:54;100830.09;;;9.07;100.00
35331;BME280;21441;52.190;20.910;2023-04-09T01:16:28;100813.97;;;9.09;100.00
35331;BME280;21441;52.190;20.910;2023-04-09T01:19:00;100824.38;;;9.30;100.00
35331;BME280;21441;52.190;20.910;2023-04-09T01:21:30;100837.00;;;9.28;100.00
35331;BME280;21441;52.190;20.910;2023-04-09T01:24:05;100837.47;;;9.41;100.00
35331;BME280;21441;52.190;20.910;2023-04-09T01:26:44;100832.06;;;9.33;100.00
35331;BME280;21441;52.190;20.910;2023-04-09T01:29:20;100842.72;;;9.33;100.00
35331;BME280;21441;52.190;20.910;2023-04-09T01:31:49;100852.56;;;9.23;100.00
35331;BME280;21441;52.190;20.910;2023-04-09T01:34:17;100856.06;;;9.23;100.00
35331;BME280;21441;52.190;20.910;2023-04-09T01:36:50;100847.63;;;9.28;100.00
35331;BME280;21441;52.190;20.910;2023-04-09T01:39:18;100861.78;;;9.28;100.00
35331;BME280;21441;52.190;20.910;2023-04-09T01:41:45;100859.09;;;9.38;100.00
35331;BME280;21441;52.190;20.910;2023-04-09T01:44:14;100864.28;;;9.40;100.00
35331;BME280;21441;52.190;20.910;2023-04-09T01:46:45;100867.47;;;9.43;100.00
35331;BME280;21441;52.190;20.910;2023-04-09T01:49:13;100850.31;;;9.28;100.00
35331;BME280;21441;52.190;20.910;2023-04-09T01:51:41;100851.56;;;9.24;100.00
35331;BME280;21441;52.190;20.910;2023-04-09T01:54:08;100859.28;;;9.27;100.00
35331;BME280;21441;52.190;20.910;2023-04-09T01:56:39;100849.09;;;9.22;100.00
35331;BME280;21441;52.190;20.910;2023-04-09T01:59:06;100855.69;;;9.18;100.00
35331;BME280;21441;52.190;20.910;2023-04-09T02:01:37;100860.13;;;9.27;100.00
35331;BME280;21441;52.190;20.910;2023-04-09T02:04:15;100858.34;;;9.18;100.00
35331;BME280;21441;52.190;20.910;2023-04-09T02:06:47;100858.28;;;9.28;100.00
35331;BME280;21441;52.190;20.910;2023-04-09T02:09:19;100860.13;;;9.27;100.00
35331;BME280;21441;52.190;20.910;2023-04-09T02:11:48;100861.97;;;9.17;100.00
35331;BME280;21441;52.190;20.910;2023-04-09T02:14:17;100860.13;;;9.27;100.00
35331;BME280;21441;52.190;20.910;2023-04-09T02:16:45;100867.97;;;9.29;100.00
35331;BME280;21441;52.190;20.910;2023-04-09T02:19:14;100869.84;;;9.46;100.00
35331;BME280;21441;52.190;20.910;2023-04-09T02:21:41;100869.84;;;9.46;100.00
35331;BME280;21441;52.190;20.910;2023-04-09T02:24:09;100872.75;;;9.25;100.00
35331;BME280;21441;52.190;20.910;2023-04-09T02:26:36;100870.59;;;9.01;100.00
35331;BME280;21441;52.190;20.910;2023-04-09T02:29:03;100872.28;;;9.02;100.00
35331;BME280;21441;52.190;20.910;2023-04-09T02:31:30;100865.84;;;8.95;100.00
35331;BME280;21441;52.190;20.910;2023-04-09T02:33:57;100865.81;;;9.05;100.00
35331;BME280;21441;52.190;20.910;2023-04-09T02:36:26;100857.59;;;8.98;100.00
35331;BME280;21441;52.190;20.910;2023-04-09T02:38:53;100874.13;;;8.92;100.00
35331;BME280;21441;52.190;20.910;2023-04-09T02:41:20;100872.03;;;8.86;100.00
35331;BME280;21441;52.190;20.910;2023-04-09T02:43:47;100867.81;;;8.93;100.00
35331;BME280;21441;52.190;20.910;2023-04-09T02:46:14;100859.94;;;9.01;100.00
35331;BME280;21441;52.190;20.910;2023-04-09T02:48:41;100861.47;;;9.04;100.00
35331;BME280;21441;52.190;20.910;2023-04-09T02:51:08;100854.94;;;8.98;100.00
35331;BME280;21441;52.190;20.910;2023-04-09T02:53:36;100862.03;;;9.07;100.00
35331;BME280;21441;52.190;20.910;2023-04-09T02:56:06;100859.81;;;9.03;100.00
35331;BME280;21441;52.190;20.910;2023-04-09T02:58:33;100855.00;;;9.06;100.00
35331;BME280;21441;52.190;20.910;2023-04-09T03:01:00;100854.75;;;9.09;100.00
35331;BME280;21441;52.190;20.910;2023-04-09T03:03:27;100863.16;;;9.05;100.00
35331;BME280;21441;52.190;20.910;2023-04-09T03:05:55;100860.94;;;9.00;100.00
35331;BME280;21441;52.190;20.910;2023-04-09T03:08:22;100854.94;;;8.98;100.00
35331;BME280;21441;52.190;20.910;2023-04-09T03:10:51;100841.31;;;9.01;100.00
35331;BME280;21441;52.190;20.910;2023-04-09T03:13:18;100864.81;;;9.06;100.00
35331;BME280;21441;52.190;20.910;2023-04-09T03:15:45;100856.16;;;9.04;100.00
35331;BME280;21441;52.190;20.910;2023-04-09T03:18:16;100862.03;;;9.07;100.00
35331;BME280;21441;52.190;20.910;2023-04-09T03:20:44;100848.84;;;9.06;100.00
35331;BME280;21441;52.190;20.910;2023-04-09T03:23:11;100850.09;;;9.12;100.00
35331;BME280;21441;52.190;20.910;2023-04-09T03:25:38;100861.16;;;9.17;100.00
35331;BME280;21441;52.190;20.910;2023-04-09T03:28:06;100840.50;;;9.01;100.00
35331;BME280;21441;52.190;20.910;2023-04-09T03:30:34;100842.56;;;9.07;100.00
35331;BME280;21441;52.190;20.910;2023-04-09T03:33:01;100846.34;;;9.04;100.00
35331;BME280;21441;52.190;20.910;2023-04-09T03:35:28;100850.38;;;9.08;100.00
35331;BME280;21441;52.190;20.910;2023-04-09T03:37:55;100839.94;;;8.97;100.00
35331;BME280;21441;52.190;20.910;2023-04-09T03:40:22;100838.44;;;8.85;100.00
35331;BME280;21441;52.190;20.910;2023-04-09T03:42:49;100837.50;;;8.66;100.00
35331;BME280;21441;52.190;20.910;2023-04-09T03:45:18;100820.16;;;8.72;100.00
35331;BME280;21441;52.190;20.910;2023-04-09T03:47:45;100830.81;;;9.00;100.00
35331;BME280;21441;52.190;20.910;2023-04-09T03:50:12;100838.59;;;9.11;100.00
35331;BME280;21441;52.190;20.910;2023-04-09T03:52:39;100830.81;;;9.00;100.00
35331;BME280;21441;52.190;20.910;2023-04-09T03:55:08;100836.94;;;9.10;100.00
35331;BME280;21441;52.190;20.910;2023-04-09T03:57:35;100851.97;;;9.01;100.00
35331;BME280;21441;52.190;20.910;2023-04-09T04:00:03;100846.19;;;8.78;100.00
35331;BME280;21441;52.190;20.910;2023-04-09T04:02:31;100852.75;;;8.74;100.00
35331;BME280;21441;52.190;20.910;2023-04-09T04:04:59;100847.06;;;8.59;100.00
35331;BME280;21441;52.190;20.910;2023-04-09T04:07:26;100851.75;;;8.75;100.00
35331;BME280;21441;52.190;20.910;2023-04-09T04:09:53;100855.16;;;8.58;100.00
35331;BME280;21441;52.190;20.910;2023-04-09T04:12:20;100848.19;;;8.47;100.00
35331;BME280;21441;52.190;20.910;2023-04-09T04:14:47;100842.72;;;8.39;100.00
35331;BME280;21441;52.190;20.910;2023-04-09T04:17:14;100848.63;;;8.42;100.00
35331;BME280;21441;52.190;20.910;2023-04-09T04:19:43;100846.66;;;8.54;100.00
35331;BME280;21441;52.190;20.910;2023-04-09T04:22:10;100838.97;;;8.41;100.00
35331;BME280;21441;52.190;20.910;2023-04-09T04:24:37;100836.31;;;8.41;100.00
35331;BME280;21441;52.190;20.910;2023-04-09T04:27:04;100844.28;;;8.41;100.00
35331;BME280;21441;52.190;20.910;2023-04-09T04:29:31;100845.81;;;8.44;100.00
35331;BME280;21441;52.190;20.910;2023-04-09T04:31:58;100851.28;;;8.42;100.00
35331;BME280;21441;52.190;20.910;2023-04-09T04:34:26;100854.19;;;8.39;100.00
35331;BME280;21441;52.190;20.910;2023-04-09T04:36:54;100857.69;;;8.40;100.00
35331;BME280;21441;52.190;20.910;2023-04-09T04:39:21;100859.94;;;8.44;100.00
35331;BME280;21441;52.190;20.910;2023-04-09T04:41:48;100856.03;;;8.39;100.00
35331;BME280;21441;52.190;20.910;2023-04-09T04:44:15;100873.66;;;8.50;100.00
35331;BME280;21441;52.190;20.910;2023-04-09T04:46:42;100865.28;;;8.54;100.00
35331;BME280;21441;52.190;20.910;2023-04-09T04:49:09;100869.84;;;8.62;100.00
35331;BME280;21441;52.190;20.910;2023-04-09T04:51:36;100871.84;;;8.50;100.00
35331;BME280;21441;52.190;20.910;2023-04-09T04:54:05;100875.59;;;8.57;100.00
35331;BME280;21441;52.190;20.910;2023-04-09T04:56:32;100878.97;;;8.59;100.00
35331;BME280;21441;52.190;20.910;2023-04-09T04:58:59;100870.69;;;8.72;100.00
35331;BME280;21441;52.190;20.910;2023-04-09T05:01:26;100875.44;;;8.78;100.00
35331;BME280;21441;52.190;20.910;2023-04-09T05:03:53;100879.97;;;8.96;100.00
35331;BME280;21441;52.190;20.910;2023-04-09T05:06:20;100889.03;;;9.13;100.00
35331;BME280;21441;52.190;20.910;2023-04-09T05:08:47;100887.63;;;9.18;100.00
35331;BME280;21441;52.190;20.910;2023-04-09T05:11:16;100884.41;;;9.15;100.00
35331;BME280;21441;52.190;20.910;2023-04-09T05:13:43;100888.91;;;9.04;100.00
35331;BME280;21441;52.190;20.910;2023-04-09T05:16:15;100884.34;;;8.97;100.00
35331;BME280;21441;52.190;20.910;2023-04-09T05:18:42;100889.00;;;8.85;100.00
35331;BME280;21441;52.190;20.910;2023-04-09T05:21:09;100885.78;;;8.81;100.00
35331;BME280;21441;52.190;20.910;2023-04-09T05:23:37;100887.44;;;8.92;100.00
35331;BME280;21441;52.190;20.910;2023-04-09T05:26:04;100873.03;;;8.85;100.00
35331;BME280;21441;52.190;20.910;2023-04-09T05:28:33;100888.53;;;8.99;100.00
35331;BME280;21441;52.190;20.910;2023-04-09T05:31:00;100878.97;;;9.06;100.00
35331;BME280;21441;52.190;20.910;2023-04-09T05:33:27;100891.84;;;9.11;100.00
35331;BME280;21441;52.190;20.910;2023-04-09T05:35:54;100889.28;;;9.19;100.00
35331;BME280;21441;52.190;20.910;2023-04-09T05:38:21;100881.53;;;9.36;100.00
35331;BME280;21441;52.190;20.910;2023-04-09T05:40:48;100883.19;;;9.37;100.00
35331;BME280;21441;52.190;20.910;2023-04-09T05:43:15;100877.69;;;9.20;100.00
35331;BME280;21441;52.190;20.910;2023-04-09T05:45:43;100883.53;;;9.52;100.00
35331;BME280;21441;52.190;20.910;2023-04-09T05:48:10;100856.63;;;9.27;100.00
35331;BME280;21441;52.190;20.910;2023-04-09T05:50:37;100886.06;;;9.53;100.00
35331;BME280;21441;52.190;20.910;2023-04-09T05:53:04;100883.69;;;9.50;100.00
35331;BME280;21441;52.190;20.910;2023-04-09T05:55:31;100890.34;;;9.64;100.00
35331;BME280;21441;52.190;20.910;2023-04-09T05:57:58;100891.22;;;9.82;100.00
35331;BME280;21441;52.190;20.910;2023-04-09T06:00:25;100885.22;;;9.98;100.00
35331;BME280;21441;52.190;20.910;2023-04-09T06:02:54;100898.31;;;10.09;100.00
35331;BME280;21441;52.190;20.910;2023-04-09T06:05:21;100894.06;;;10.17;100.00
35331;BME280;21441;52.190;20.910;2023-04-09T06:07:48;100897.03;;;10.31;100.00
35331;BME280;21441;52.190;20.910;2023-04-09T06:10:15;100902.56;;;10.30;100.00
35331;BME280;21441;52.190;20.910;2023-04-09T06:12:42;100901.59;;;10.57;100.00
35331;BME280;21441;52.190;20.910;2023-04-09T06:15:10;100896.16;;;10.67;100.00
35331;BME280;21441;52.190;20.910;2023-04-09T06:17:37;100898.34;;;10.45;100.00
35331;BME280;21441;52.190;20.910;2023-04-09T06:20:07;100893.25;;;10.78;100.00
35331;BME280;21441;52.190;20.910;2023-04-09T06:22:34;100899.31;;;10.88;100.00
35331;BME280;21441;52.190;20.910;2023-04-09T06:25:01;100896.00;;;10.68;100.00
35331;BME280;21441;52.190;20.910;2023-04-09T06:27:29;100901.34;;;10.68;100.00
35331;BME280;21441;52.190;20.910;2023-04-09T06:29:55;100910.78;;;10.81;100.00
35331;BME280;21441;52.190;20.910;2023-04-09T06:32:23;100904.34;;;10.91;100.00
35331;BME280;21441;52.190;20.910;2023-04-09T06:34:50;100905.75;;;10.78;100.00
35331;BME280;21441;52.190;20.910;2023-04-09T06:37:18;100900.00;;;10.90;100.00
35331;BME280;21441;52.190;20.910;2023-04-09T06:39:45;100904.22;;;10.75;100.00
35331;BME280;21441;52.190;20.910;2023-04-09T06:42:12;100899.69;;;10.93;100.00
35331;BME280;21441;52.190;20.910;2023-04-09T06:44:40;100901.91;;;11.06;100.00
35331;BME280;21441;52.190;20.910;2023-04-09T06:47:07;100900.06;;;10.99;100.00
35331;BME280;21441;52.190;20.910;2023-04-09T06:49:34;100907.44;;;11.05;100.00
35331;BME280;21441;52.190;20.910;2023-04-09T06:52:01;100904.69;;;11.23;100.00
35331;BME280;21441;52.190;20.910;2023-04-09T06:54:30;100912.75;;;11.31;100.00
35331;BME280;21441;52.190;20.910;2023-04-09T06:56:57;100914.16;;;11.51;100.00
35331;BME280;21441;52.190;20.910;2023-04-09T06:59:24;100913.75;;;11.81;100.00
35331;BME280;21441;52.190;20.910;2023-04-09T07:01:51;100922.53;;;11.91;100.00
35331;BME280;21441;52.190;20.910;2023-04-09T07:04:18;100924.72;;;12.04;100.00
35331;BME280;21441;52.190;20.910;2023-04-09T07:06:45;100916.41;;;12.23;100.00
35331;BME280;21441;52.190;20.910;2023-04-09T07:09:12;100916.91;;;12.35;100.00
35331;BME280;21441;52.190;20.910;2023-04-09T07:11:40;100926.13;;;12.65;100.00
35331;BME280;21441;52.190;20.910;2023-04-09T07:14:07;100933.81;;;12.85;100.00
35331;BME280;21441;52.190;20.910;2023-04-09T07:16:35;100931.75;;;13.03;100.00
35331;BME280;21441;52.190;20.910;2023-04-09T07:19:02;100923.88;;;13.18;100.00
35331;BME280;21441;52.190;20.910;2023-04-09T07:21:31;100930.22;;;13.33;100.00
35331;BME280;21441;52.190;20.910;2023-04-09T07:23:58;100932.34;;;13.46;100.00
35331;BME280;21441;52.190;20.910;2023-04-09T07:26:25;100935.94;;;13.70;97.69
35331;BME280;21441;52.190;20.910;2023-04-09T07:28:55;100929.84;;;13.84;95.82
35331;BME280;21441;52.190;20.910;2023-04-09T07:31:23;100933.34;;;13.85;93.53
35331;BME280;21441;52.190;20.910;2023-04-09T07:33:50;100931.16;;;13.88;92.64
35331;BME280;21441;52.190;20.910;2023-04-09T07:36:17;100925.81;;;13.49;93.50
35331;BME280;21441;52.190;20.910;2023-04-09T07:38:44;100943.38;;;13.51;95.38
35331;BME280;21441;52.190;20.910;2023-04-09T07:41:11;100939.00;;;13.58;93.39
35331;BME280;21441;52.190;20.910;2023-04-09T07:43:38;100932.09;;;13.72;93.63
35331;BME280;21441;52.190;20.910;2023-04-09T07:46:08;100934.09;;;13.70;92.30
35331;BME280;21441;52.190;20.910;2023-04-09T07:48:34;100930.47;;;13.94;91.04
35331;BME280;21441;52.190;20.910;2023-04-09T07:51:02;100932.75;;;14.06;88.41
35331;BME280;21441;52.190;20.910;2023-04-09T07:53:29;100932.97;;;14.42;86.21
35331;BME280;21441;52.190;20.910;2023-04-09T07:55:57;100924.94;;;14.65;82.90
35331;BME280;21441;52.190;20.910;2023-04-09T07:58:23;100931.13;;;14.89;81.06
35331;BME280;21441;52.190;20.910;2023-04-09T08:00:51;100928.56;;;14.72;79.81
35331;BME280;21441;52.190;20.910;2023-04-09T08:03:19;100925.09;;;15.01;78.22
35331;BME280;21441;52.190;20.910;2023-04-09T08:05:47;100931.78;;;15.05;77.20
35331;BME280;21441;52.190;20.910;2023-04-09T08:08:14;100931.78;;;15.05;72.01
35331;BME280;21441;52.190;20.910;2023-04-09T08:10:41;100937.97;;;14.91;70.40
35331;BME280;21441;52.190;20.910;2023-04-09T08:13:08;100932.13;;;14.88;68.34
35331;BME280;21441;52.190;20.910;2023-04-09T08:15:35;100933.28;;;14.70;70.00
35331;BME280;21441;52.190;20.910;2023-04-09T08:18:02;100938.19;;;14.67;69.06
35331;BME280;21441;52.190;20.910;2023-04-09T08:20:31;100933.75;;;14.51;69.08
35331;BME280;21441;52.190;20.910;2023-04-09T08:22:58;100937.50;;;14.41;70.83
35331;BME280;21441;52.190;20.910;2023-04-09T08:25:25;100934.88;;;14.64;69.54
35331;BME280;21441;52.190;20.910;2023-04-09T08:27:52;100930.72;;;14.77;69.75
35331;BME280;21441;52.190;20.910;2023-04-09T08:30:20;100932.41;;;14.93;68.29
35331;BME280;21441;52.190;20.910;2023-04-09T08:32:46;100930.31;;;15.18;67.51
35331;BME280;21441;52.190;20.910;2023-04-09T08:35:15;100937.19;;;15.35;64.82
35331;BME280;21441;52.190;20.910;2023-04-09T08:37:44;100936.13;;;15.21;65.15
35331;BME280;21441;52.190;20.910;2023-04-09T08:40:11;100930.56;;;15.08;65.59
35331;BME280;21441;52.190;20.910;2023-04-09T08:42:42;100935.94;;;15.08;64.12
35331;BME280;21441;52.190;20.910;2023-04-09T08:45:11;100932.63;;;15.51;61.18
35331;BME280;21441;52.190;20.910;2023-04-09T08:47:39;100930.69;;;15.74;60.58
35331;BME280;21441;52.190;20.910;2023-04-09T08:50:08;100930.00;;;16.23;59.01
35331;BME280;21441;52.190;20.910;2023-04-09T08:52:35;100926.91;;;16.69;55.77
35331;BME280;21441;52.190;20.910;2023-04-09T08:55:05;100926.38;;;16.59;55.03
35331;BME280;21441;52.190;20.910;2023-04-09T08:57:36;100923.03;;;16.79;54.53
35331;BME280;21441;52.190;20.910;2023-04-09T09:00:05;100925.16;;;16.83;53.61
35331;BME280;21441;52.190;20.910;2023-04-09T09:02:32;100925.16;;;16.83;53.97
35331;BME280;21441;52.190;20.910;2023-04-09T09:05:00;100927.34;;;16.73;53.31
35331;BME280;21441;52.190;20.910;2023-04-09T09:07:27;100924.28;;;16.33;54.55
35331;BME280;21441;52.190;20.910;2023-04-09T09:09:56;100933.06;;;16.42;55.20
35331;BME280;21441;52.190;20.910;2023-04-09T09:12:38;100931.41;;;16.19;54.38
35331;BME280;21441;52.190;20.910;2023-04-09T09:15:25;100938.97;;;16.30;54.43
35331;BME280;21441;52.190;20.910;2023-04-09T09:17:54;100936.47;;;16.07;54.50
35331;BME280;21441;52.190;20.910;2023-04-09T09:20:22;100939.28;;;15.69;54.39
35331;BME280;21441;52.190;20.910;2023-04-09T09:22:51;100940.41;;;15.75;55.37
35331;BME280;21441;52.190;20.910;2023-04-09T09:25:19;100943.47;;;15.57;55.53
35331;BME280;21441;52.190;20.910;2023-04-09T09:27:49;100943.38;;;15.36;56.79
35331;BME280;21441;52.190;20.910;2023-04-09T09:30:20;100947.72;;;15.52;56.56
35331;BME280;21441;52.190;20.910;2023-04-09T09:32:50;100947.56;;;15.68;56.68
35331;BME280;21441;52.190;20.910;2023-04-09T09:35:18;100948.50;;;15.75;55.53
35331;BME280;21441;52.190;20.910;2023-04-09T09:37:45;100940.25;;;15.98;54.96
35331;BME280;21441;52.190;20.910;2023-04-09T09:40:26;100943.94;;;15.76;55.26
35331;BME280;21441;52.190;20.910;2023-04-09T09:42:55;100936.50;;;15.93;55.22
35331;BME280;21441;52.190;20.910;2023-04-09T09:45:23;100944.06;;;16.04;54.87
35331;BME280;21441;52.190;20.910;2023-04-09T09:47:51;100941.56;;;16.02;55.32
35331;BME280;21441;52.190;20.910;2023-04-09T09:50:19;100943.44;;;16.23;54.56
35331;BME280;21441;52.190;20.910;2023-04-09T09:52:49;100931.25;;;16.70;53.71
35331;BME280;21441;52.190;20.910;2023-04-09T09:55:21;100938.69;;;16.90;53.78
35331;BME280;21441;52.190;20.910;2023-04-09T09:57:51;100936.81;;;17.19;52.40
35331;BME280;21441;52.190;20.910;2023-04-09T10:00:20;100912.28;;;17.42;52.23
35331;BME280;21441;52.190;20.910;2023-04-09T10:02:54;100930.78;;;17.93;50.32
35331;BME280;21441;52.190;20.910;2023-04-09T10:05:23;100913.63;;;18.27;48.95
35331;BME280;21441;52.190;20.910;2023-04-09T10:07:53;100921.13;;;18.52;48.96
35331;BME280;21441;52.190;20.910;2023-04-09T10:10:21;100912.00;;;18.66;47.92
35331;BME280;21441;52.190;20.910;2023-04-09T10:12:49;100913.44;;;19.09;47.33
35331;BME280;21441;52.190;20.910;2023-04-09T10:15:17;100906.19;;;19.68;46.60
35331;BME280;21441;52.190;20.910;2023-04-09T10:17:45;100904.09;;;19.76;45.86
35331;BME280;21441;52.190;20.910;2023-04-09T10:20:17;100897.59;;;19.84;45.27
35331;BME280;21441;52.190;20.910;2023-04-09T10:22:47;100901.69;;;19.93;44.85
35331;BME280;21441;52.190;20.910;2023-04-09T10:25:16;100898.03;;;19.81;45.19
35331;BME280;21441;52.190;20.910;2023-04-09T10:27:43;100894.13;;;19.70;45.28
35331;BME280;21441;52.190;20.910;2023-04-09T10:30:30;100896.47;;;19.47;45.45
35331;BME280;21441;52.190;20.910;2023-04-09T10:33:08;100895.50;;;19.28;45.56
35331;BME280;21441;52.190;20.910;2023-04-09T10:35:36;100906.34;;;19.14;46.14
35331;BME280;21441;52.190;20.910;2023-04-09T10:38:06;100898.25;;;18.94;46.45
35331;BME280;21441;52.190;20.910;2023-04-09T10:40:33;100893.25;;;19.11;46.58
35331;BME280;21441;52.190;20.910;2023-04-09T10:43:01;100897.75;;;19.37;45.55
35331;BME280;21441;52.190;20.910;2023-04-09T10:45:38;100894.53;;;19.74;45.29
35331;BME280;21441;52.190;20.910;2023-04-09T10:48:11;100892.94;;;19.91;44.38
35331;BME280;21441;52.190;20.910;2023-04-09T10:50:41;100889.41;;;19.91;44.52
35331;BME280;21441;52.190;20.910;2023-04-09T10:53:20;100893.81;;;19.33;45.37
35331;BME280;21441;52.190;20.910;2023-04-09T10:55:49;100897.22;;;19.09;44.94
35331;BME280;21441;52.190;20.910;2023-04-09T10:58:17;100896.19;;;18.83;45.65
35331;BME280;21441;52.190;20.910;2023-04-09T11:00:45;100898.88;;;18.43;46.33
35331;BME280;21441;52.190;20.910;2023-04-09T11:03:21;100898.00;;;18.03;47.36
35331;BME280;21441;52.190;20.910;2023-04-09T11:05:59;100904.84;;;17.99;48.03
35331;BME280;21441;52.190;20.910;2023-04-09T11:08:31;100897.13;;;17.96;48.28
35331;BME280;21441;52.190;20.910;2023-04-09T11:10:59;100888.69;;;18.32;48.11
35331;BME280;21441;52.190;20.910;2023-04-09T11:13:28;100892.47;;;18.44;48.23
35331;BME280;21441;52.190;20.910;2023-04-09T11:15:56;100899.09;;;18.62;47.34
35331;BME280;21441;52.190;20.910;2023-04-09T11:18:26;100891.41;;;18.85;46.65
35331;BME280;21441;52.190;20.910;2023-04-09T11:20:53;100886.69;;;19.46;46.06
35331;BME280;21441;52.190;20.910;2023-04-09T11:23:21;100886.22;;;19.55;45.74
35331;BME280;21441;52.190;20.910;2023-04-09T11:25:49;100884.66;;;19.86;45.32
35331;BME280;21441;52.190;20.910;2023-04-09T11:28:17;100875.53;;;19.81;45.27
35331;BME280;21441;52.190;20.910;2023-04-09T11:30:44;100882.75;;;20.25;44.36
35331;BME280;21441;52.190;20.910;2023-04-09T11:33:12;100886.44;;;20.63;44.16
35331;BME280;21441;52.190;20.910;2023-04-09T11:35:41;100874.25;;;20.97;44.05
35331;BME280;21441;52.190;20.910;2023-04-09T11:38:08;100880.03;;;21.00;42.96
35331;BME280;21441;52.190;20.910;2023-04-09T11:40:38;100872.97;;;20.49;42.62
35331;BME280;21441;52.190;20.910;2023-04-09T11:43:09;100875.75;;;20.68;44.01
35331;BME280;21441;52.190;20.910;2023-04-09T11:45:37;100874.38;;;21.02;43.36
35331;BME280;21441;52.190;20.910;2023-04-09T11:48:04;100876.50;;;21.18;42.92
35331;BME280;21441;52.190;20.910;2023-04-09T11:50:32;100873.25;;;21.10;41.97
35331;BME280;21441;52.190;20.910;2023-04-09T11:53:00;100870.78;;;21.08;41.29
35331;BME280;21441;52.190;20.910;2023-04-09T11:55:28;100881.31;;;21.16;41.84
35331;BME280;21441;52.190;20.910;2023-04-09T11:57:57;100873.84;;;21.12;41.69
35331;BME280;21441;52.190;20.910;2023-04-09T12:00:26;100869.03;;;20.95;41.59
35331;BME280;21441;52.190;20.910;2023-04-09T12:03:01;100872.84;;;20.12;43.36
35331;BME280;21441;52.190;20.910;2023-04-09T12:05:29;100874.94;;;20.10;44.01
35331;BME280;21441;52.190;20.910;2023-04-09T12:07:57;100869.19;;;20.82;42.00
35331;BME280;21441;52.190;20.910;2023-04-09T12:10:28;100871.53;;;20.97;41.90
35331;BME280;21441;52.190;20.910;2023-04-09T12:13:00;100867.06;;;20.84;42.11
35331;BME280;21441;52.190;20.910;2023-04-09T12:15:31;100867.56;;;20.49;43.19
35331;BME280;21441;52.190;20.910;2023-04-09T12:17:58;100875.75;;;20.11;43.70
35331;BME280;21441;52.190;20.910;2023-04-09T12:20:28;100872.88;;;19.74;44.17
35331;BME280;21441;52.190;20.910;2023-04-09T12:22:55;100870.69;;;19.37;44.97
35331;BME280;21441;52.190;20.910;2023-04-09T12:25:23;100870.22;;;19.47;45.33
35331;BME280;21441;52.190;20.910;2023-04-09T12:27:51;100867.19;;;19.37;44.43
35331;BME280;21441;52.190;20.910;2023-04-09T12:30:19;100868.88;;;19.25;44.29
35331;BME280;21441;52.190;20.910;2023-04-09T12:32:46;100873.94;;;18.88;45.48
35331;BME280;21441;52.190;20.910;2023-04-09T12:35:13;100864.81;;;18.82;44.89
35331;BME280;21441;52.190;20.910;2023-04-09T12:37:41;100873.50;;;18.24;45.99
35331;BME280;21441;52.190;20.910;2023-04-09T12:40:08;100863.47;;;17.85;46.94
35331;BME280;21441;52.190;20.910;2023-04-09T12:42:38;100862.50;;;18.52;46.00
35331;BME280;21441;52.190;20.910;2023-04-09T12:45:08;100857.44;;;19.16;45.22